Latest Weather Observations for Hervey Bay

IDQ60801

Issued at 10:02 am EST Friday 24 March 2017 (issued every 30 minutes, with the page automatically refreshed every 10 minutes)

About weather observations | Map of weather stations | Latest weather observations for QLD | Other Formats
Station Details ID: 040405 Name: HERVEY BAY AIRPORT Lat: -25.32 Lon: 152.88 Height: 12.98 m
Data from the previous 72 hours. | See also: Recent months at Hervey Bay
Date/Time
EST
Temp
°C
App
Temp
°C
Dew
Point
°C
Rel
Hum
%
Delta-T
°C
Wind Press
QNH
hPa
Press
MSL
hPa
Rain since
9am
mm
Dir  Spd
km/h
Gust
km/h
Spd
kts
Gust
kts
24/10:00am 28.7 31.1 21.5 65 4.8 ESE 11 17 6 9 1015.5 1015.4 0.0
24/09:30am 27.6 30.3 22.1 72 3.7 SE 11 15 6 8 1015.4 1015.3 0.0
24/09:00am 27.4 30.3 22.4 74 3.4 ESE 11 15 6 8 1015.3 1015.2 3.2
24/08:30am 26.3 29.8 22.8 81 2.4 S 9 13 5 7 1015.1 1015.0 3.2
24/08:00am 24.7 28.4 22.6 88 1.4 SSW 7 11 4 6 1014.9 1014.8 3.2
24/07:30am 23.6 26.7 22.2 92 0.9 SSW 9 13 5 7 1014.8 1014.7 3.2
24/07:00am 22.9 25.9 21.9 94 0.7 SW 9 13 5 7 1014.4 1014.3 3.2
24/06:42am 22.6 25.0 21.6 94 0.7 SW 11 13 6 7 1014.2 1014.1 3.2
24/06:30am 22.5 25.3 21.5 94 0.7 SSW 9 13 5 7 1014.0 1013.9 3.2
24/06:29am 22.5 25.6 21.5 94 0.7 SSW 7 11 4 6 1014.0 1013.9 3.2
24/06:00am 22.2 25.2 21.2 94 0.7 SW 7 9 4 5 1013.9 1013.8 3.2
24/05:30am 22.3 25.3 21.3 94 0.7 SW 7 9 4 5 1013.5 1013.4 3.0
24/05:00am 22.3 24.6 21.3 94 0.7 SSW 11 15 6 8 1013.3 1013.2 3.0
24/04:30am 22.6 26.7 21.6 94 0.7 SSW 2 7 1 4 1013.2 1013.1 3.0
24/04:00am 22.6 27.1 21.6 94 0.7 CALM 0 0 0 0 1012.9 1012.8 3.0
24/03:30am 22.7 25.6 21.7 94 0.7 SSW 9 13 5 7 1013.0 1012.9 3.0
24/03:00am 22.6 25.4 21.6 94 0.7 SSW 9 13 5 7 1013.1 1013.0 3.0
24/02:30am 22.8 25.7 21.8 94 0.7 SSW 9 13 5 7 1013.5 1013.4 3.0
24/02:00am 22.9 25.5 21.9 94 0.7 SSW 11 13 6 7 1013.7 1013.6 3.0
24/01:30am 23.2 26.7 22.2 94 0.7 SW 7 11 4 6 1013.9 1013.8 3.0
24/01:05am 23.1 27.5 22.1 94 0.7 SW 2 7 1 4 1014.0 1013.9 3.0
24/01:00am 23.3 27.0 22.3 94 0.7 SSW 6 9 3 5 1014.0 1013.9 3.0
24/12:36am 23.5 26.4 22.5 94 0.7 SSW 11 15 6 8 1014.5 1014.4 3.0
24/12:30am 23.6 26.6 22.6 94 0.7 SSW 11 15 6 8 1014.5 1014.4 3.0
24/12:08am 23.8 27.3 22.8 94 0.7 SW 9 11 5 6 1014.7 1014.6 3.0
24/12:03am 23.8 27.3 22.8 94 0.7 SW 9 11 5 6 1014.7 1014.6 3.0
24/12:00am 23.8 27.1 22.6 93 0.8 SW 9 11 5 6 1014.7 1014.6 3.0
 
Date/Time
EST
Temp
°C
App
Temp
°C
Dew
Point
°C
Rel
Hum
%
Delta-T
°C
Wind Press
QNH
hPa
Press
MSL
hPa
Rain since
9am
mm
Dir  Spd
km/h
Gust
km/h
Spd
kts
Gust
kts
23/11:30pm 23.9 27.3 22.7 93 0.8 SSW 9 11 5 6 1014.9 1014.8 3.0
23/11:00pm 24.0 27.8 22.8 93 0.8 SSW 7 9 4 5 1015.1 1015.0 3.0
23/10:30pm 24.1 28.0 22.9 93 0.8 SSW 7 7 4 4 1015.1 1015.0 3.0
23/10:00pm 24.0 28.9 22.4 91 1.1 CALM 0 0 0 0 1015.3 1015.2 3.0
23/09:30pm 24.4 29.6 22.8 91 1.1 CALM 0 0 0 0 1015.6 1015.5 3.0
23/09:00pm 24.6 29.4 22.8 90 1.2 SE 2 6 1 3 1015.7 1015.6 3.0
23/08:30pm 24.5 28.2 22.6 89 1.3 SSE 7 7 4 4 1015.6 1015.5 3.0
23/08:00pm 24.4 28.1 22.5 89 1.3 ESE 7 9 4 5 1015.4 1015.3 3.0
23/07:30pm 24.6 29.7 22.7 89 1.3 CALM 0 0 0 0 1015.2 1015.1 3.0
23/07:00pm 24.5 28.5 22.0 86 1.7 ESE 4 6 2 3 1014.8 1014.7 3.0
23/06:30pm 24.7 28.3 22.0 85 1.8 ESE 6 7 3 4 1014.3 1014.2 3.0
23/06:00pm 25.0 29.6 23.1 89 1.3 S 4 7 2 4 1014.1 1014.0 3.0
23/05:30pm 25.2 29.4 23.1 88 1.4 SSW 6 7 3 4 1013.8 1013.7 3.0
23/05:00pm 25.2 29.0 22.7 86 1.7 S 7 11 4 6 1013.7 1013.6 3.0
23/04:30pm 25.5 29.2 23.2 87 1.6 SSE 9 13 5 7 1013.5 1013.4 3.0
23/04:17pm 25.3 28.9 23.0 87 1.6 SE 9 13 5 7 1013.5 1013.4 3.0
23/04:05pm 25.2 29.2 23.1 88 1.4 SSE 7 11 4 6 1013.5 1013.4 3.0
23/04:00pm 25.5 30.0 23.6 89 1.3 SSE 6 7 3 4 1013.5 1013.4 3.0
23/03:30pm 25.4 29.6 23.5 89 1.3 SSW 7 9 4 5 1013.7 1013.6 3.0
23/03:00pm 25.5 30.0 23.6 89 1.3 S 6 9 3 5 1013.8 1013.7 2.8
23/02:30pm 25.2 29.2 23.1 88 1.4 S 7 11 4 6 1014.0 1013.9 2.8
23/02:00pm 25.7 29.9 23.2 86 1.7 SW 6 9 3 5 1014.1 1014.0 2.8
23/01:30pm 25.7 29.7 22.8 84 2.0 SE 6 9 3 5 1014.2 1014.1 2.6
23/01:00pm 25.8 29.8 22.7 83 2.1 SSW 6 7 3 4 1014.6 1014.5 2.6
23/12:30pm 25.4 28.9 22.1 82 2.2 SSW 7 9 4 5 1014.7 1014.6 2.6
23/12:00pm 24.9 28.4 21.8 83 2.1 SSE 6 7 3 4 1015.0 1014.9 2.6
23/11:36am 24.7 28.3 23.1 91 1.1 SE 9 11 5 6 1015.4 1015.3 2.6
23/11:31am 24.6 27.7 22.8 90 1.2 ESE 11 17 6 9 1015.5 1015.4 2.6
23/11:30am 24.5 27.1 22.6 89 1.3 ESE 13 17 7 9 1015.5 1015.4 2.6
23/11:19am 24.6 26.7 22.5 88 1.4 ESE 15 20 8 11 1015.8 1015.7 2.6
23/11:12am 25.3 28.5 23.0 87 1.6 S 11 17 6 9 1015.8 1015.7 1.2
23/11:00am 25.4 28.4 22.7 85 1.8 SSW 11 15 6 8 1015.7 1015.6 0.0
23/10:30am 25.2 28.6 23.4 90 1.2 SSW 11 15 6 8 1015.9 1015.8 0.0
23/10:00am 24.4 27.8 22.7 90 1.1 SSW 9 13 5 7 1016.3 1016.2 0.0
23/09:30am 24.5 28.0 22.9 91 1.1 SSW 9 13 5 7 1016.3 1016.2 0.0
23/09:00am 24.2 28.0 22.8 92 0.9 SSW 7 9 4 5 1016.1 1016.0 29.4
23/08:44am 24.2 28.1 23.0 93 0.8 S 7 9 4 5 1015.9 1015.8 29.4
23/08:37am 24.1 28.0 22.9 93 0.8 S 7 13 4 7 1015.9 1015.8 29.4
23/08:30am 24.0 27.5 22.8 93 0.8 SSE 9 13 5 7 1015.9 1015.8 29.2
23/08:25am 24.1 28.0 22.9 93 0.8 SE 7 9 4 5 1016.0 1015.9 29.2
23/08:15am 23.8 28.5 22.6 93 0.8 SE 2 6 1 3 1016.0 1015.9 29.0
23/08:00am 23.8 28.1 22.6 93 0.8 SSW 4 7 2 4 1015.8 1015.7 28.8
23/07:30am 23.3 28.1 22.1 93 0.8 CALM 0 0 0 0 1015.2 1015.1 28.8
23/07:00am 23.1 26.6 21.9 93 0.8 SSE 6 9 3 5 1014.9 1014.8 28.8
23/06:30am 23.0 26.3 21.8 93 0.8 ESE 7 9 4 5 1014.7 1014.6 28.4
23/06:00am 23.0 26.5 21.8 93 0.8 SSE 6 9 3 5 1014.3 1014.2 28.2
23/05:49am 22.9 25.4 21.7 93 0.8 ESE 11 15 6 8 1014.3 1014.2 28.2
23/05:30am 23.1 25.8 22.1 94 0.7 ESE 11 17 6 9 1014.2 1014.1 27.6
23/05:07am 23.1 26.4 21.9 93 0.8 SE 7 11 4 6 1014.1 1014.0 25.8
23/05:06am 23.1 26.4 21.9 93 0.8 SE 7 11 4 6 1014.1 1014.0 25.8
23/05:00am 23.1 26.6 21.9 93 0.8 SSE 6 9 3 5 1014.1 1014.0 25.6
23/04:59am 23.1 26.6 21.9 93 0.8 SSE 6 9 3 5 1014.1 1014.0 25.6
23/04:50am 23.2 26.9 22.2 94 0.7 SSE 6 9 3 5 1014.0 1013.9 25.4
23/04:30am 23.2 26.8 22.0 93 0.8 ESE 6 7 3 4 1013.9 1013.8 24.2
23/04:21am 23.2 26.8 22.0 93 0.8 S 6 9 3 5 1013.8 1013.7 23.6
23/04:00am 23.2 26.6 22.0 93 0.8 SE 7 11 4 6 1013.6 1013.5 21.8
23/03:45am 23.2 26.2 22.0 93 0.8 ENE 9 11 5 6 1013.6 1013.5 20.4
23/03:30am 23.3 26.9 22.1 93 0.8 SE 6 7 3 4 1013.5 1013.4 18.2
23/03:13am 23.3 26.9 22.1 93 0.8 SE 6 7 3 4 1013.3 1013.2 16.8
23/03:07am 23.3 26.8 22.1 93 0.8 SE 7 9 4 5 1013.3 1013.2 16.6
23/03:00am 23.2 26.8 22.0 93 0.8 SSE 6 7 3 4 1013.3 1013.2 16.4
23/02:30am 23.6 27.5 22.6 94 0.7 SE 6 9 3 5 1013.4 1013.3 13.8
23/02:17am 23.5 27.2 22.5 94 0.7 S 7 9 4 5 1013.4 1013.3 10.4
23/02:00am 23.3 26.9 22.3 94 0.7 SSW 7 11 4 6 1013.5 1013.4 9.6
23/01:30am 23.3 26.5 22.3 94 0.7 SSW 9 11 5 6 1013.6 1013.5 9.4
23/01:00am 23.3 26.1 22.3 94 0.7 SSW 11 13 6 7 1013.9 1013.8 9.0
23/12:30am 23.4 26.6 22.4 94 0.7 SSW 9 13 5 7 1014.1 1014.0 9.0
23/12:00am 23.5 26.7 22.3 93 0.8 SSW 9 13 5 7 1014.6 1014.5 8.8
 
Date/Time
EST
Temp
°C
App
Temp
°C
Dew
Point
°C
Rel
Hum
%
Delta-T
°C
Wind Press
QNH
hPa
Press
MSL
hPa
Rain since
9am
mm
Dir  Spd
km/h
Gust
km/h
Spd
kts
Gust
kts
22/11:30pm 23.5 27.1 22.3 93 0.8 SSW 7 11 4 6 1014.7 1014.6 8.8
22/11:00pm 23.4 26.5 22.2 93 0.8 SSW 9 11 5 6 1014.9 1014.8 8.8
22/10:30pm 23.5 26.6 22.1 92 0.9 SSW 9 11 5 6 1014.8 1014.7 8.6
22/10:00pm 23.7 27.2 22.1 91 1.1 SSW 7 9 4 5 1014.8 1014.7 8.6
22/09:30pm 24.0 28.5 22.3 90 1.1 ESE 2 7 1 4 1015.0 1014.9 8.6
22/09:00pm 24.0 27.1 22.1 89 1.3 E 9 11 5 6 1014.8 1014.7 8.6
22/08:30pm 23.8 26.8 21.9 89 1.3 E 9 13 5 7 1014.6 1014.5 8.4
22/08:00pm 23.8 26.8 21.9 89 1.3 ENE 9 13 5 7 1014.5 1014.4 8.4
22/07:30pm 23.8 26.3 21.7 88 1.4 ENE 11 17 6 9 1014.2 1014.1 8.0
22/07:00pm 23.7 25.9 21.8 89 1.3 ENE 13 17 7 9 1014.0 1013.9 7.6
22/06:30pm 23.7 26.3 22.0 90 1.1 ENE 11 15 6 8 1013.9 1013.8 7.2
22/06:00pm 23.7 26.1 21.6 88 1.4 E 11 15 6 8 1013.8 1013.7 6.6
22/05:30pm 23.8 26.8 21.9 89 1.3 ENE 9 11 5 6 1013.7 1013.6 6.2
22/05:00pm 23.8 26.3 21.7 88 1.4 ENE 11 15 6 8 1013.5 1013.4 5.6
22/04:30pm 23.9 25.8 21.4 86 1.6 ENE 13 17 7 9 1013.4 1013.3 5.4
22/04:00pm 24.0 26.5 21.7 87 1.5 ENE 11 15 6 8 1013.4 1013.3 4.6
22/03:30pm 24.5 27.2 22.2 87 1.5 ENE 11 15 6 8 1013.3 1013.2 4.2
22/03:00pm 24.6 27.0 22.3 87 1.5 NNE 13 17 7 9 1013.2 1013.1 3.6
22/02:30pm 24.7 27.2 22.4 87 1.5 NNE 13 20 7 11 1013.3 1013.2 3.2
22/02:00pm 25.0 26.8 22.5 86 1.7 NNE 17 24 9 13 1013.3 1013.2 2.0
22/01:50pm 25.3 27.5 22.6 85 1.8 NE 15 20 8 11 1013.4 1013.3 2.0
22/01:30pm 25.6 29.4 23.5 88 1.4 NE 9 11 5 6 1013.5 1013.4 1.8
22/01:00pm 25.7 28.9 23.0 85 1.8 ENE 11 17 6 9 1013.8 1013.7 1.0
22/12:30pm 26.0 28.3 22.7 82 2.2 NE 15 19 8 10 1014.0 1013.9 0.4
22/12:00pm 27.3 29.2 22.0 73 3.6 NE 15 20 8 11 1014.3 1014.2 0.0
22/11:30am 27.7 28.8 21.3 68 4.3 NE 17 20 9 11 1014.4 1014.3 0.0
22/11:00am 28.0 29.0 21.1 66 4.6 NE 17 22 9 12 1014.7 1014.6 0.0
22/10:30am 28.1 28.7 21.1 65 4.7 ENE 19 26 10 14 1014.9 1014.8 0.0
22/10:00am 28.2 29.2 21.0 65 4.8 ENE 17 24 9 13 1015.1 1015.0 0.0
22/09:30am 28.0 29.6 21.5 67 4.3 E 15 20 8 11 1015.1 1015.0 0.0
22/09:00am 27.6 30.3 22.1 72 3.7 E 11 17 6 9 1015.2 1015.1 0.0
22/08:30am 26.9 29.1 21.9 74 3.3 E 13 17 7 9 1015.0 1014.9 0.0
22/08:00am 26.7 28.8 21.7 74 3.3 E 13 17 7 9 1014.8 1014.7 0.0
22/07:30am 26.7 28.9 21.9 75 3.2 E 13 17 7 9 1014.6 1014.5 0.0
22/07:00am 26.0 28.5 21.7 77 2.9 E 11 17 6 9 1014.4 1014.3 0.0
22/06:30am 25.7 27.7 21.6 78 2.7 E 13 17 7 9 1014.0 1013.9 0.0
22/06:00am 25.6 28.1 21.7 79 2.6 ENE 11 15 6 8 1013.9 1013.8 0.0
22/05:30am 25.4 27.9 21.7 80 2.5 ENE 11 17 6 9 1013.6 1013.5 0.0
22/05:00am 25.0 28.2 22.3 85 1.8 ENE 9 13 5 7 1013.4 1013.3 0.0
22/04:30am 24.8 28.2 22.7 88 1.4 E 9 13 5 7 1013.1 1013.0 0.0
22/04:00am 24.3 27.9 22.4 89 1.3 ESE 7 9 4 5 1012.9 1012.8 0.0
22/03:30am 24.0 27.2 22.3 90 1.1 SSW 9 11 5 6 1012.8 1012.7 0.0
22/03:00am 24.3 29.4 22.6 90 1.1 CALM 0 0 0 0 1013.0 1012.9 0.0
22/02:30am 24.3 29.1 22.2 88 1.4 CALM 0 0 0 0 1013.0 1012.9 0.0
22/02:00am 24.7 29.0 22.0 85 1.8 NNE 2 6 1 3 1013.1 1013.0 0.0
22/01:30am 24.9 27.8 22.4 86 1.7 NNE 11 15 6 8 1013.5 1013.4 0.0
22/01:00am 25.0 27.5 22.5 86 1.7 NNE 13 20 7 11 1013.9 1013.8 0.0
22/12:30am 24.2 27.9 22.3 89 1.3 E 6 7 3 4 1014.0 1013.9 0.0
22/12:00am 24.3 27.2 21.8 86 1.7 E 9 13 5 7 1014.2 1014.1 0.0
 
Date/Time
EST
Temp
°C
App
Temp
°C
Dew
Point
°C
Rel
Hum
%
Delta-T
°C
Wind Press
QNH
hPa
Press
MSL
hPa
Rain since
9am
mm
Dir  Spd
km/h
Gust
km/h
Spd
kts
Gust
kts
21/11:30pm 24.0 27.8 22.4 91 1.1 S 6 7 3 4 1014.3 1014.2 0.0
21/11:00pm 24.1 28.0 22.5 91 1.1 SSE 6 7 3 4 1014.6 1014.5 0.0
21/10:30pm 24.0 27.6 22.1 89 1.3 SE 6 9 3 5 1014.7 1014.6 0.0
21/10:00pm 24.1 27.7 22.0 88 1.4 SSE 6 7 3 4 1014.7 1014.6 0.0
21/09:30pm 24.3 27.8 22.2 88 1.4 SE 7 9 4 5 1014.9 1014.8 0.0
21/09:00pm 24.4 28.0 22.1 87 1.5 SE 6 7 3 4 1014.8 1014.7 0.0
21/08:30pm 24.3 27.8 22.2 88 1.4 SE 7 11 4 6 1014.6 1014.5 0.0
21/08:00pm 24.2 27.8 22.3 89 1.3 SE 7 9 4 5 1014.4 1014.3 0.0
21/07:48pm 24.1 27.5 22.0 88 1.4 SE 7 9 4 5 1014.3 1014.2 0.0
21/07:30pm 24.0 24.5 21.1 84 1.9 E 20 28 11 15 1014.3 1014.2 0.0
21/07:00pm 25.8 26.8 21.7 78 2.7 E 19 26 10 14 1013.9 1013.8 0.0
21/06:30pm 25.9 27.9 21.6 77 2.9 E 13 19 7 10 1013.6 1013.5 0.0
21/06:00pm 26.0 27.0 21.0 74 3.3 E 17 24 9 13 1013.4 1013.3 0.0
21/05:30pm 26.4 27.3 20.9 72 3.6 E 17 24 9 13 1013.3 1013.2 0.0
21/05:00pm 26.6 27.4 20.7 70 3.9 E 17 22 9 12 1013.1 1013.0 0.0
21/04:30pm 26.8 27.9 21.3 72 3.7 ESE 17 20 9 11 1013.1 1013.0 0.0
21/04:00pm 26.9 28.5 21.4 72 3.7 E 15 20 8 11 1013.2 1013.1 0.0
21/03:30pm 27.1 28.0 20.9 69 4.1 E 17 22 9 12 1013.3 1013.2 0.0
21/03:00pm 27.9 28.3 20.7 65 4.8 E 19 24 10 13 1013.4 1013.3 0.0
21/02:30pm 28.3 29.3 21.1 65 4.8 E 17 24 9 13 1013.4 1013.3 0.0
21/02:00pm 28.4 28.7 20.4 62 5.3 E 19 26 10 14 1013.7 1013.6 0.0
21/01:30pm 29.0 29.6 21.0 62 5.3 E 19 24 10 13 1013.9 1013.8 0.0
21/01:00pm 29.0 29.2 20.2 59 5.8 ESE 19 26 10 14 1014.2 1014.1 0.0
21/12:30pm 29.1 30.0 20.8 61 5.5 E 17 24 9 13 1014.3 1014.2 0.0
21/12:00pm 29.1 29.6 21.1 62 5.3 ESE 20 26 11 14 1014.7 1014.6 0.0
21/11:30am 28.7 29.3 20.2 60 5.6 ESE 17 24 9 13 1015.1 1015.0 0.0
21/11:00am 29.1 29.6 20.8 61 5.5 E 19 24 10 13 1015.2 1015.1 0.0
21/10:30am 28.9 29.6 20.4 60 5.6 E 17 24 9 13 1015.5 1015.4 0.0

Other Formats:

Comma delimited format used in spreadsheet applications
http://www.bom.gov.au/fwo/IDQ60801/IDQ60801.95565.axf

JavaScript Object Notation format (JSON) in row-major order
http://www.bom.gov.au/fwo/IDQ60801/IDQ60801.95565.json